sensor_id;sensor_type;location;lat;lon;timestamp;P1;durP1;ratioP1;P2;durP2;ratioP2
68377;SDS011;55322;48.146;11.516;2024-01-30T00:00:58;10.07;;;4.27;;
68377;SDS011;55322;48.146;11.516;2024-01-30T00:03:24;12.53;;;4.30;;
68377;SDS011;55322;48.146;11.516;2024-01-30T00:05:49;9.82;;;3.83;;
68377;SDS011;55322;48.146;11.516;2024-01-30T00:08:14;12.43;;;3.97;;
68377;SDS011;55322;48.146;11.516;2024-01-30T00:10:40;10.30;;;4.07;;
68377;SDS011;55322;48.146;11.516;2024-01-30T00:13:05;15.00;;;4.80;;
68377;SDS011;55322;48.146;11.516;2024-01-30T00:15:31;9.53;;;3.80;;
68377;SDS011;55322;48.146;11.516;2024-01-30T00:17:56;10.67;;;4.00;;
68377;SDS011;55322;48.146;11.516;2024-01-30T00:20:21;10.82;;;4.32;;
68377;SDS011;55322;48.146;11.516;2024-01-30T00:22:47;10.32;;;4.32;;
68377;SDS011;55322;48.146;11.516;2024-01-30T00:25:13;13.03;;;4.20;;
68377;SDS011;55322;48.146;11.516;2024-01-30T00:27:38;11.10;;;3.80;;
68377;SDS011;55322;48.146;11.516;2024-01-30T00:30:03;11.17;;;3.93;;
68377;SDS011;55322;48.146;11.516;2024-01-30T00:32:30;9.00;;;3.80;;
68377;SDS011;55322;48.146;11.516;2024-01-30T00:34:55;9.80;;;4.27;;
68377;SDS011;55322;48.146;11.516;2024-01-30T00:37:20;10.55;;;4.30;;
68377;SDS011;55322;48.146;11.516;2024-01-30T00:39:46;15.70;;;3.90;;
68377;SDS011;55322;48.146;11.516;2024-01-30T00:42:11;12.80;;;4.00;;
68377;SDS011;55322;48.146;11.516;2024-01-30T00:44:36;8.17;;;3.57;;
68377;SDS011;55322;48.146;11.516;2024-01-30T00:47:03;10.50;;;4.18;;
68377;SDS011;55322;48.146;11.516;2024-01-30T00:49:29;8.57;;;3.88;;
68377;SDS011;55322;48.146;11.516;2024-01-30T00:51:54;10.45;;;4.20;;
68377;SDS011;55322;48.146;11.516;2024-01-30T00:54:20;11.90;;;4.00;;
68377;SDS011;55322;48.146;11.516;2024-01-30T00:56:45;11.97;;;4.40;;
68377;SDS011;55322;48.146;11.516;2024-01-30T00:59:11;11.17;;;4.10;;
68377;SDS011;55322;48.146;11.516;2024-01-30T01:01:36;13.00;;;4.55;;
68377;SDS011;55322;48.146;11.516;2024-01-30T01:04:02;11.23;;;4.30;;
68377;SDS011;55322;48.146;11.516;2024-01-30T01:06:27;11.20;;;4.37;;
68377;SDS011;55322;48.146;11.516;2024-01-30T01:08:52;11.07;;;4.13;;
68377;SDS011;55322;48.146;11.516;2024-01-30T01:11:18;11.40;;;4.57;;
68377;SDS011;55322;48.146;11.516;2024-01-30T01:13:43;8.73;;;3.83;;
68377;SDS011;55322;48.146;11.516;2024-01-30T01:16:08;12.75;;;4.07;;
68377;SDS011;55322;48.146;11.516;2024-01-30T01:18:34;11.77;;;4.10;;
68377;SDS011;55322;48.146;11.516;2024-01-30T01:20:59;11.67;;;3.83;;
68377;SDS011;55322;48.146;11.516;2024-01-30T01:23:25;10.93;;;3.80;;
68377;SDS011;55322;48.146;11.516;2024-01-30T01:25:51;10.27;;;4.33;;
68377;SDS011;55322;48.146;11.516;2024-01-30T01:28:16;11.07;;;3.90;;
68377;SDS011;55322;48.146;11.516;2024-01-30T01:30:41;11.88;;;4.15;;
68377;SDS011;55322;48.146;11.516;2024-01-30T01:33:07;11.23;;;3.78;;
68377;SDS011;55322;48.146;11.516;2024-01-30T01:35:32;13.40;;;4.13;;
68377;SDS011;55322;48.146;11.516;2024-01-30T01:37:58;9.10;;;3.77;;
68377;SDS011;55322;48.146;11.516;2024-01-30T01:40:26;14.55;;;3.85;;
68377;SDS011;55322;48.146;11.516;2024-01-30T01:42:52;9.38;;;3.65;;
68377;SDS011;55322;48.146;11.516;2024-01-30T01:45:19;9.18;;;3.35;;
68377;SDS011;55322;48.146;11.516;2024-01-30T01:47:45;11.17;;;3.50;;
68377;SDS011;55322;48.146;11.516;2024-01-30T01:50:13;10.38;;;4.03;;
68377;SDS011;55322;48.146;11.516;2024-01-30T01:52:43;11.65;;;4.07;;
68377;SDS011;55322;48.146;11.516;2024-01-30T01:55:09;11.23;;;3.70;;
68377;SDS011;55322;48.146;11.516;2024-01-30T01:57:35;10.40;;;3.58;;
68377;SDS011;55322;48.146;11.516;2024-01-30T02:00:01;10.93;;;3.95;;
68377;SDS011;55322;48.146;11.516;2024-01-30T02:02:28;10.38;;;3.85;;
68377;SDS011;55322;48.146;11.516;2024-01-30T02:04:56;13.38;;;3.72;;
68377;SDS011;55322;48.146;11.516;2024-01-30T02:07:23;12.57;;;4.03;;
68377;SDS011;55322;48.146;11.516;2024-01-30T02:09:49;9.85;;;3.80;;
68377;SDS011;55322;48.146;11.516;2024-01-30T02:12:14;9.37;;;3.90;;
68377;SDS011;55322;48.146;11.516;2024-01-30T02:14:46;10.23;;;3.63;;
68377;SDS011;55322;48.146;11.516;2024-01-30T02:17:12;13.27;;;3.90;;
68377;SDS011;55322;48.146;11.516;2024-01-30T02:19:38;10.77;;;4.05;;
68377;SDS011;55322;48.146;11.516;2024-01-30T02:22:07;12.05;;;4.00;;
68377;SDS011;55322;48.146;11.516;2024-01-30T02:24:33;10.73;;;3.47;;
68377;SDS011;55322;48.146;11.516;2024-01-30T02:26:58;9.57;;;3.43;;
68377;SDS011;55322;48.146;11.516;2024-01-30T02:29:23;13.23;;;3.88;;
68377;SDS011;55322;48.146;11.516;2024-01-30T02:31:49;8.43;;;3.30;;
68377;SDS011;55322;48.146;11.516;2024-01-30T02:34:15;7.80;;;3.27;;
68377;SDS011;55322;48.146;11.516;2024-01-30T02:36:43;8.70;;;2.90;;
68377;SDS011;55322;48.146;11.516;2024-01-30T02:39:09;10.20;;;3.27;;
68377;SDS011;55322;48.146;11.516;2024-01-30T02:41:34;8.55;;;3.60;;
68377;SDS011;55322;48.146;11.516;2024-01-30T02:44:00;9.80;;;3.60;;
68377;SDS011;55322;48.146;11.516;2024-01-30T02:46:26;8.82;;;3.15;;
68377;SDS011;55322;48.146;11.516;2024-01-30T02:48:51;8.07;;;2.80;;
68377;SDS011;55322;48.146;11.516;2024-01-30T02:51:17;8.23;;;3.20;;
68377;SDS011;55322;48.146;11.516;2024-01-30T02:53:42;7.37;;;3.10;;
68377;SDS011;55322;48.146;11.516;2024-01-30T02:56:07;8.45;;;2.80;;
68377;SDS011;55322;48.146;11.516;2024-01-30T02:58:35;9.77;;;2.92;;
68377;SDS011;55322;48.146;11.516;2024-01-30T03:01:01;9.27;;;3.70;;
68377;SDS011;55322;48.146;11.516;2024-01-30T03:03:27;7.50;;;3.17;;
68377;SDS011;55322;48.146;11.516;2024-01-30T03:05:52;8.10;;;3.33;;
68377;SDS011;55322;48.146;11.516;2024-01-30T03:08:17;8.68;;;3.38;;
68377;SDS011;55322;48.146;11.516;2024-01-30T03:10:43;10.90;;;3.47;;
68377;SDS011;55322;48.146;11.516;2024-01-30T03:13:08;9.57;;;2.80;;
68377;SDS011;55322;48.146;11.516;2024-01-30T03:15:33;8.03;;;2.83;;
68377;SDS011;55322;48.146;11.516;2024-01-30T03:17:59;8.13;;;2.80;;
68377;SDS011;55322;48.146;11.516;2024-01-30T03:20:24;10.30;;;3.03;;
68377;SDS011;55322;48.146;11.516;2024-01-30T03:22:49;7.80;;;2.80;;
68377;SDS011;55322;48.146;11.516;2024-01-30T03:25:15;7.85;;;2.60;;
68377;SDS011;55322;48.146;11.516;2024-01-30T03:27:40;7.40;;;2.53;;
68377;SDS011;55322;48.146;11.516;2024-01-30T03:30:06;8.53;;;3.00;;
68377;SDS011;55322;48.146;11.516;2024-01-30T03:32:32;7.25;;;2.67;;
68377;SDS011;55322;48.146;11.516;2024-01-30T03:34:57;9.30;;;2.57;;
68377;SDS011;55322;48.146;11.516;2024-01-30T03:37:23;7.70;;;2.67;;
68377;SDS011;55322;48.146;11.516;2024-01-30T03:39:49;7.95;;;1.95;;
68377;SDS011;55322;48.146;11.516;2024-01-30T03:42:14;7.63;;;2.53;;
68377;SDS011;55322;48.146;11.516;2024-01-30T03:44:40;7.65;;;2.38;;
68377;SDS011;55322;48.146;11.516;2024-01-30T03:47:05;6.72;;;2.28;;
68377;SDS011;55322;48.146;11.516;2024-01-30T03:49:30;8.27;;;2.47;;
68377;SDS011;55322;48.146;11.516;2024-01-30T03:51:56;8.83;;;2.40;;
68377;SDS011;55322;48.146;11.516;2024-01-30T03:54:21;8.27;;;2.47;;
68377;SDS011;55322;48.146;11.516;2024-01-30T03:56:47;7.97;;;2.47;;
68377;SDS011;55322;48.146;11.516;2024-01-30T03:59:12;7.50;;;2.80;;
68377;SDS011;55322;48.146;11.516;2024-01-30T04:01:37;8.50;;;2.45;;
68377;SDS011;55322;48.146;11.516;2024-01-30T04:04:03;6.33;;;2.13;;
68377;SDS011;55322;48.146;11.516;2024-01-30T04:06:28;5.60;;;1.77;;
68377;SDS011;55322;48.146;11.516;2024-01-30T04:08:54;7.53;;;2.70;;
68377;SDS011;55322;48.146;11.516;2024-01-30T04:11:19;8.10;;;2.27;;
68377;SDS011;55322;48.146;11.516;2024-01-30T04:13:45;6.50;;;2.10;;
68377;SDS011;55322;48.146;11.516;2024-01-30T04:16:19;6.97;;;2.40;;
68377;SDS011;55322;48.146;11.516;2024-01-30T04:18:48;8.02;;;2.72;;
68377;SDS011;55322;48.146;11.516;2024-01-30T04:21:13;7.65;;;2.33;;
68377;SDS011;55322;48.146;11.516;2024-01-30T04:23:39;7.63;;;2.40;;
68377;SDS011;55322;48.146;11.516;2024-01-30T04:26:05;9.43;;;2.28;;
68377;SDS011;55322;48.146;11.516;2024-01-30T04:28:31;7.37;;;2.20;;
68377;SDS011;55322;48.146;11.516;2024-01-30T04:30:56;8.63;;;2.30;;
68377;SDS011;55322;48.146;11.516;2024-01-30T04:33:22;8.18;;;2.40;;
68377;SDS011;55322;48.146;11.516;2024-01-30T04:35:47;6.53;;;2.63;;
68377;SDS011;55322;48.146;11.516;2024-01-30T04:38:12;7.13;;;2.30;;
68377;SDS011;55322;48.146;11.516;2024-01-30T04:40:39;6.70;;;2.15;;
68377;SDS011;55322;48.146;11.516;2024-01-30T04:43:05;7.40;;;2.27;;
68377;SDS011;55322;48.146;11.516;2024-01-30T04:45:30;7.87;;;2.40;;
68377;SDS011;55322;48.146;11.516;2024-01-30T04:47:55;7.93;;;2.30;;
68377;SDS011;55322;48.146;11.516;2024-01-30T04:50:21;7.30;;;2.20;;
68377;SDS011;55322;48.146;11.516;2024-01-30T04:52:46;6.40;;;2.00;;
68377;SDS011;55322;48.146;11.516;2024-01-30T04:55:12;10.87;;;2.40;;
68377;SDS011;55322;48.146;11.516;2024-01-30T04:57:37;6.97;;;2.27;;
68377;SDS011;55322;48.146;11.516;2024-01-30T05:00:03;8.68;;;2.50;;
68377;SDS011;55322;48.146;11.516;2024-01-30T05:02:30;6.43;;;2.13;;
68377;SDS011;55322;48.146;11.516;2024-01-30T05:04:55;7.63;;;2.40;;
68377;SDS011;55322;48.146;11.516;2024-01-30T05:07:21;7.30;;;2.13;;
68377;SDS011;55322;48.146;11.516;2024-01-30T05:09:46;8.00;;;2.10;;
68377;SDS011;55322;48.146;11.516;2024-01-30T05:12:12;7.30;;;2.30;;
68377;SDS011;55322;48.146;11.516;2024-01-30T05:14:37;6.93;;;2.25;;
68377;SDS011;55322;48.146;11.516;2024-01-30T05:17:03;9.77;;;2.40;;
68377;SDS011;55322;48.146;11.516;2024-01-30T05:19:28;7.60;;;2.60;;
68377;SDS011;55322;48.146;11.516;2024-01-30T05:21:54;8.53;;;2.60;;
68377;SDS011;55322;48.146;11.516;2024-01-30T05:24:19;7.17;;;2.50;;
68377;SDS011;55322;48.146;11.516;2024-01-30T05:26:44;6.75;;;2.10;;
68377;SDS011;55322;48.146;11.516;2024-01-30T05:29:10;9.67;;;2.70;;
68377;SDS011;55322;48.146;11.516;2024-01-30T05:31:35;7.30;;;2.17;;
68377;SDS011;55322;48.146;11.516;2024-01-30T05:34:01;8.07;;;2.23;;
68377;SDS011;55322;48.146;11.516;2024-01-30T05:36:26;9.93;;;1.80;;
68377;SDS011;55322;48.146;11.516;2024-01-30T05:38:52;6.07;;;2.20;;
68377;SDS011;55322;48.146;11.516;2024-01-30T05:41:18;7.70;;;2.22;;
68377;SDS011;55322;48.146;11.516;2024-01-30T05:43:43;7.20;;;2.43;;
68377;SDS011;55322;48.146;11.516;2024-01-30T05:46:09;6.63;;;2.05;;
68377;SDS011;55322;48.146;11.516;2024-01-30T05:48:34;6.78;;;1.75;;
68377;SDS011;55322;48.146;11.516;2024-01-30T05:51:00;6.13;;;2.00;;
68377;SDS011;55322;48.146;11.516;2024-01-30T05:53:26;6.65;;;2.00;;
68377;SDS011;55322;48.146;11.516;2024-01-30T05:55:52;6.53;;;1.77;;
68377;SDS011;55322;48.146;11.516;2024-01-30T05:58:17;7.60;;;2.15;;
68377;SDS011;55322;48.146;11.516;2024-01-30T06:00:42;8.13;;;2.20;;
68377;SDS011;55322;48.146;11.516;2024-01-30T06:03:08;6.70;;;2.13;;
68377;SDS011;55322;48.146;11.516;2024-01-30T06:05:33;6.10;;;2.20;;
68377;SDS011;55322;48.146;11.516;2024-01-30T06:07:58;9.33;;;2.60;;
68377;SDS011;55322;48.146;11.516;2024-01-30T06:10:24;6.43;;;2.07;;
68377;SDS011;55322;48.146;11.516;2024-01-30T06:12:49;7.38;;;2.30;;
68377;SDS011;55322;48.146;11.516;2024-01-30T06:15:15;7.70;;;2.10;;
68377;SDS011;55322;48.146;11.516;2024-01-30T06:17:40;8.27;;;2.00;;
68377;SDS011;55322;48.146;11.516;2024-01-30T06:20:06;6.67;;;2.17;;
68377;SDS011;55322;48.146;11.516;2024-01-30T06:22:31;9.48;;;2.10;;
68377;SDS011;55322;48.146;11.516;2024-01-30T06:24:57;8.93;;;2.40;;
68377;SDS011;55322;48.146;11.516;2024-01-30T06:27:22;9.10;;;2.60;;
68377;SDS011;55322;48.146;11.516;2024-01-30T06:29:48;6.60;;;2.35;;
68377;SDS011;55322;48.146;11.516;2024-01-30T06:32:13;6.43;;;2.20;;
68377;SDS011;55322;48.146;11.516;2024-01-30T06:34:38;7.47;;;2.60;;
68377;SDS011;55322;48.146;11.516;2024-01-30T06:37:05;6.15;;;2.08;;
68377;SDS011;55322;48.146;11.516;2024-01-30T06:39:30;7.20;;;2.20;;
68377;SDS011;55322;48.146;11.516;2024-01-30T06:41:56;7.20;;;2.10;;
68377;SDS011;55322;48.146;11.516;2024-01-30T06:44:21;6.60;;;1.73;;
68377;SDS011;55322;48.146;11.516;2024-01-30T06:46:47;8.50;;;2.20;;
68377;SDS011;55322;48.146;11.516;2024-01-30T06:49:12;7.10;;;1.73;;
68377;SDS011;55322;48.146;11.516;2024-01-30T06:51:37;7.80;;;2.03;;
68377;SDS011;55322;48.146;11.516;2024-01-30T06:54:03;7.65;;;2.15;;
68377;SDS011;55322;48.146;11.516;2024-01-30T06:56:29;8.73;;;2.30;;
68377;SDS011;55322;48.146;11.516;2024-01-30T06:58:55;7.15;;;2.22;;
68377;SDS011;55322;48.146;11.516;2024-01-30T07:01:20;7.73;;;2.40;;
68377;SDS011;55322;48.146;11.516;2024-01-30T07:03:46;8.77;;;2.23;;
68377;SDS011;55322;48.146;11.516;2024-01-30T07:06:11;7.30;;;2.08;;
68377;SDS011;55322;48.146;11.516;2024-01-30T07:08:37;6.20;;;1.87;;
68377;SDS011;55322;48.146;11.516;2024-01-30T07:11:04;6.75;;;1.83;;
68377;SDS011;55322;48.146;11.516;2024-01-30T07:13:30;6.90;;;2.00;;
68377;SDS011;55322;48.146;11.516;2024-01-30T07:15:56;7.40;;;2.30;;
68377;SDS011;55322;48.146;11.516;2024-01-30T07:18:21;6.30;;;1.70;;
68377;SDS011;55322;48.146;11.516;2024-01-30T07:20:46;12.90;;;2.33;;
68377;SDS011;55322;48.146;11.516;2024-01-30T07:23:13;11.07;;;2.13;;
68377;SDS011;55322;48.146;11.516;2024-01-30T07:25:40;6.70;;;1.75;;
68377;SDS011;55322;48.146;11.516;2024-01-30T07:28:06;10.93;;;2.60;;
68377;SDS011;55322;48.146;11.516;2024-01-30T07:30:34;7.88;;;1.98;;
68377;SDS011;55322;48.146;11.516;2024-01-30T07:32:59;6.63;;;2.20;;
68377;SDS011;55322;48.146;11.516;2024-01-30T07:35:25;10.30;;;2.03;;
68377;SDS011;55322;48.146;11.516;2024-01-30T07:37:50;9.32;;;1.75;;
68377;SDS011;55322;48.146;11.516;2024-01-30T07:40:16;8.50;;;1.90;;
68377;SDS011;55322;48.146;11.516;2024-01-30T07:42:42;8.18;;;2.03;;
68377;SDS011;55322;48.146;11.516;2024-01-30T07:45:07;7.38;;;1.85;;
68377;SDS011;55322;48.146;11.516;2024-01-30T07:47:33;6.60;;;1.70;;
68377;SDS011;55322;48.146;11.516;2024-01-30T07:49:58;8.55;;;1.77;;
68377;SDS011;55322;48.146;11.516;2024-01-30T07:52:24;7.47;;;2.00;;
68377;SDS011;55322;48.146;11.516;2024-01-30T07:54:49;6.17;;;1.83;;
68377;SDS011;55322;48.146;11.516;2024-01-30T07:57:15;5.82;;;1.73;;
68377;SDS011;55322;48.146;11.516;2024-01-30T07:59:42;7.30;;;1.70;;
68377;SDS011;55322;48.146;11.516;2024-01-30T08:02:09;5.40;;;1.70;;
68377;SDS011;55322;48.146;11.516;2024-01-30T08:04:35;6.13;;;2.10;;
68377;SDS011;55322;48.146;11.516;2024-01-30T08:07:00;13.17;;;2.10;;
68377;SDS011;55322;48.146;11.516;2024-01-30T08:09:26;7.40;;;1.95;;
68377;SDS011;55322;48.146;11.516;2024-01-30T08:11:51;7.00;;;1.98;;
68377;SDS011;55322;48.146;11.516;2024-01-30T08:14:16;7.13;;;2.30;;
68377;SDS011;55322;48.146;11.516;2024-01-30T08:16:42;6.20;;;1.97;;
68377;SDS011;55322;48.146;11.516;2024-01-30T08:19:07;6.00;;;2.10;;
68377;SDS011;55322;48.146;11.516;2024-01-30T08:21:33;6.60;;;1.98;;
68377;SDS011;55322;48.146;11.516;2024-01-30T08:24:02;7.73;;;2.20;;
68377;SDS011;55322;48.146;11.516;2024-01-30T08:26:28;9.32;;;2.60;;
68377;SDS011;55322;48.146;11.516;2024-01-30T08:28:54;8.70;;;2.20;;
68377;SDS011;55322;48.146;11.516;2024-01-30T08:31:19;7.75;;;2.25;;
68377;SDS011;55322;48.146;11.516;2024-01-30T08:33:44;8.93;;;2.17;;
68377;SDS011;55322;48.146;11.516;2024-01-30T08:36:10;9.70;;;2.17;;
68377;SDS011;55322;48.146;11.516;2024-01-30T08:38:35;8.27;;;2.27;;
68377;SDS011;55322;48.146;11.516;2024-01-30T08:41:00;8.80;;;2.33;;
68377;SDS011;55322;48.146;11.516;2024-01-30T08:43:26;9.77;;;2.37;;
68377;SDS011;55322;48.146;11.516;2024-01-30T08:45:51;7.67;;;2.50;;
68377;SDS011;55322;48.146;11.516;2024-01-30T08:48:16;6.85;;;2.35;;
68377;SDS011;55322;48.146;11.516;2024-01-30T08:50:42;11.17;;;2.30;;
68377;SDS011;55322;48.146;11.516;2024-01-30T08:53:08;6.95;;;2.10;;
68377;SDS011;55322;48.146;11.516;2024-01-30T08:55:33;6.37;;;1.80;;
68377;SDS011;55322;48.146;11.516;2024-01-30T08:57:59;7.03;;;2.10;;
68377;SDS011;55322;48.146;11.516;2024-01-30T09:00:24;6.93;;;1.93;;
68377;SDS011;55322;48.146;11.516;2024-01-30T09:02:50;5.75;;;1.75;;
68377;SDS011;55322;48.146;11.516;2024-01-30T09:05:15;7.80;;;1.70;;
68377;SDS011;55322;48.146;11.516;2024-01-30T09:07:40;7.10;;;1.90;;
68377;SDS011;55322;48.146;11.516;2024-01-30T09:10:06;6.10;;;1.90;;
68377;SDS011;55322;48.146;11.516;2024-01-30T09:12:31;8.75;;;2.00;;
68377;SDS011;55322;48.146;11.516;2024-01-30T09:14:57;6.97;;;1.80;;
68377;SDS011;55322;48.146;11.516;2024-01-30T09:17:22;7.27;;;2.03;;
68377;SDS011;55322;48.146;11.516;2024-01-30T09:19:48;6.67;;;1.80;;
68377;SDS011;55322;48.146;11.516;2024-01-30T09:22:13;7.93;;;1.90;;
68377;SDS011;55322;48.146;11.516;2024-01-30T09:24:39;7.93;;;1.98;;
68377;SDS011;55322;48.146;11.516;2024-01-30T09:27:05;5.60;;;1.57;;
68377;SDS011;55322;48.146;11.516;2024-01-30T09:29:31;6.78;;;1.80;;
68377;SDS011;55322;48.146;11.516;2024-01-30T09:31:59;6.82;;;1.77;;
68377;SDS011;55322;48.146;11.516;2024-01-30T09:34:24;8.10;;;1.80;;
68377;SDS011;55322;48.146;11.516;2024-01-30T09:36:50;8.23;;;1.50;;
68377;SDS011;55322;48.146;11.516;2024-01-30T09:39:15;6.73;;;1.50;;
68377;SDS011;55322;48.146;11.516;2024-01-30T09:44:35;8.45;;;1.70;;
68377;SDS011;55322;48.146;11.516;2024-01-30T09:47:03;5.73;;;1.70;;
68377;SDS011;55322;48.146;11.516;2024-01-30T09:49:33;5.38;;;1.40;;
68377;SDS011;55322;48.146;11.516;2024-01-30T09:52:00;9.68;;;2.05;;
68377;SDS011;55322;48.146;11.516;2024-01-30T09:54:30;6.78;;;1.75;;
68377;SDS011;55322;48.146;11.516;2024-01-30T09:56:56;6.35;;;1.70;;
68377;SDS011;55322;48.146;11.516;2024-01-30T09:59:22;7.17;;;1.80;;
68377;SDS011;55322;48.146;11.516;2024-01-30T10:01:48;7.35;;;1.80;;
68377;SDS011;55322;48.146;11.516;2024-01-30T10:04:14;6.90;;;1.70;;
68377;SDS011;55322;48.146;11.516;2024-01-30T10:06:40;8.38;;;1.92;;
68377;SDS011;55322;48.146;11.516;2024-01-30T10:09:05;7.33;;;1.60;;
68377;SDS011;55322;48.146;11.516;2024-01-30T10:11:31;6.97;;;1.50;;
68377;SDS011;55322;48.146;11.516;2024-01-30T10:13:56;7.23;;;1.67;;
68377;SDS011;55322;48.146;11.516;2024-01-30T10:16:21;11.40;;;2.90;;
68377;SDS011;55322;48.146;11.516;2024-01-30T10:18:47;6.85;;;1.77;;
68377;SDS011;55322;48.146;11.516;2024-01-30T10:21:12;7.47;;;1.93;;
68377;SDS011;55322;48.146;11.516;2024-01-30T10:23:38;5.83;;;1.80;;
68377;SDS011;55322;48.146;11.516;2024-01-30T10:26:07;11.67;;;1.97;;
68377;SDS011;55322;48.146;11.516;2024-01-30T10:28:33;7.85;;;1.80;;
68377;SDS011;55322;48.146;11.516;2024-01-30T10:31:01;6.18;;;2.00;;
68377;SDS011;55322;48.146;11.516;2024-01-30T10:33:31;8.90;;;1.70;;
68377;SDS011;55322;48.146;11.516;2024-01-30T10:36:03;9.27;;;2.00;;
68377;SDS011;55322;48.146;11.516;2024-01-30T10:38:30;7.35;;;1.90;;
68377;SDS011;55322;48.146;11.516;2024-01-30T10:40:56;9.00;;;1.83;;
68377;SDS011;55322;48.146;11.516;2024-01-30T10:43:22;7.95;;;1.90;;
68377;SDS011;55322;48.146;11.516;2024-01-30T10:45:49;6.93;;;1.70;;
68377;SDS011;55322;48.146;11.516;2024-01-30T10:48:19;8.95;;;1.80;;
68377;SDS011;55322;48.146;11.516;2024-01-30T10:50:51;7.03;;;1.50;;
68377;SDS011;55322;48.146;11.516;2024-01-30T10:53:20;8.00;;;1.50;;
68377;SDS011;55322;48.146;11.516;2024-01-30T10:55:47;6.78;;;1.50;;
68377;SDS011;55322;48.146;11.516;2024-01-30T10:58:16;6.50;;;1.73;;
68377;SDS011;55322;48.146;11.516;2024-01-30T11:00:42;6.22;;;1.48;;
68377;SDS011;55322;48.146;11.516;2024-01-30T11:03:08;5.15;;;1.25;;
68377;SDS011;55322;48.146;11.516;2024-01-30T11:05:34;6.03;;;1.30;;
68377;SDS011;55322;48.146;11.516;2024-01-30T11:08:10;5.43;;;1.30;;
68377;SDS011;55322;48.146;11.516;2024-01-30T11:10:46;6.00;;;1.00;;
68377;SDS011;55322;48.146;11.516;2024-01-30T11:13:15;6.40;;;1.10;;
68377;SDS011;55322;48.146;11.516;2024-01-30T11:15:41;5.57;;;1.27;;
68377;SDS011;55322;48.146;11.516;2024-01-30T11:18:06;5.80;;;1.97;;
68377;SDS011;55322;48.146;11.516;2024-01-30T11:20:32;7.18;;;1.50;;
68377;SDS011;55322;48.146;11.516;2024-01-30T11:22:57;5.27;;;1.37;;
68377;SDS011;55322;48.146;11.516;2024-01-30T11:25:24;5.07;;;1.30;;
68377;SDS011;55322;48.146;11.516;2024-01-30T11:27:54;7.18;;;1.63;;
68377;SDS011;55322;48.146;11.516;2024-01-30T11:32:59;5.63;;;1.50;;
68377;SDS011;55322;48.146;11.516;2024-01-30T11:35:26;8.80;;;1.60;;
68377;SDS011;55322;48.146;11.516;2024-01-30T11:37:51;5.77;;;1.43;;
68377;SDS011;55322;48.146;11.516;2024-01-30T11:40:17;5.80;;;1.55;;
68377;SDS011;55322;48.146;11.516;2024-01-30T11:42:44;10.90;;;1.77;;
68377;SDS011;55322;48.146;11.516;2024-01-30T11:45:12;10.13;;;2.10;;
68377;SDS011;55322;48.146;11.516;2024-01-30T11:47:37;6.70;;;1.50;;
68377;SDS011;55322;48.146;11.516;2024-01-30T11:50:04;5.93;;;1.40;;
68377;SDS011;55322;48.146;11.516;2024-01-30T11:52:31;5.47;;;1.40;;
68377;SDS011;55322;48.146;11.516;2024-01-30T11:54:58;7.13;;;1.50;;
68377;SDS011;55322;48.146;11.516;2024-01-30T11:57:23;7.43;;;1.43;;
68377;SDS011;55322;48.146;11.516;2024-01-30T11:59:49;5.85;;;1.80;;
68377;SDS011;55322;48.146;11.516;2024-01-30T12:02:17;7.20;;;1.50;;
68377;SDS011;55322;48.146;11.516;2024-01-30T12:04:43;4.47;;;1.17;;
68377;SDS011;55322;48.146;11.516;2024-01-30T12:07:08;6.43;;;1.43;;
68377;SDS011;55322;48.146;11.516;2024-01-30T12:09:34;6.63;;;1.40;;
68377;SDS011;55322;48.146;11.516;2024-01-30T12:11:59;4.67;;;1.03;;
68377;SDS011;55322;48.146;11.516;2024-01-30T12:14:25;6.05;;;1.00;;
68377;SDS011;55322;48.146;11.516;2024-01-30T12:16:51;6.00;;;1.40;;
68377;SDS011;55322;48.146;11.516;2024-01-30T12:19:26;4.90;;;1.17;;
68377;SDS011;55322;48.146;11.516;2024-01-30T12:21:55;6.32;;;1.60;;
68377;SDS011;55322;48.146;11.516;2024-01-30T12:24:23;5.73;;;1.30;;
68377;SDS011;55322;48.146;11.516;2024-01-30T12:26:50;5.17;;;1.10;;
68377;SDS011;55322;48.146;11.516;2024-01-30T12:29:15;7.13;;;1.50;;
68377;SDS011;55322;48.146;11.516;2024-01-30T12:31:41;8.88;;;1.20;;
68377;SDS011;55322;48.146;11.516;2024-01-30T12:34:07;5.17;;;1.20;;
68377;SDS011;55322;48.146;11.516;2024-01-30T12:36:33;5.07;;;1.02;;
68377;SDS011;55322;48.146;11.516;2024-01-30T12:38:59;6.03;;;1.10;;
68377;SDS011;55322;48.146;11.516;2024-01-30T12:41:25;6.00;;;1.20;;
68377;SDS011;55322;48.146;11.516;2024-01-30T12:43:54;7.80;;;1.20;;
68377;SDS011;55322;48.146;11.516;2024-01-30T12:46:21;7.38;;;1.20;;
68377;SDS011;55322;48.146;11.516;2024-01-30T12:48:50;6.35;;;1.30;;
68377;SDS011;55322;48.146;11.516;2024-01-30T12:51:16;5.30;;;1.20;;
68377;SDS011;55322;48.146;11.516;2024-01-30T12:53:41;4.97;;;1.10;;
68377;SDS011;55322;48.146;11.516;2024-01-30T12:56:06;6.15;;;1.20;;
68377;SDS011;55322;48.146;11.516;2024-01-30T12:58:32;6.50;;;1.30;;
68377;SDS011;55322;48.146;11.516;2024-01-30T13:00:57;4.83;;;1.00;;
68377;SDS011;55322;48.146;11.516;2024-01-30T13:03:23;5.07;;;1.37;;
68377;SDS011;55322;48.146;11.516;2024-01-30T13:05:48;7.10;;;1.30;;
68377;SDS011;55322;48.146;11.516;2024-01-30T13:08:14;5.68;;;1.10;;
68377;SDS011;55322;48.146;11.516;2024-01-30T13:10:39;5.27;;;1.00;;
68377;SDS011;55322;48.146;11.516;2024-01-30T13:13:04;5.10;;;1.30;;
68377;SDS011;55322;48.146;11.516;2024-01-30T13:15:30;7.73;;;1.10;;
68377;SDS011;55322;48.146;11.516;2024-01-30T13:17:55;4.30;;;0.90;;
68377;SDS011;55322;48.146;11.516;2024-01-30T13:20:20;8.73;;;1.23;;
68377;SDS011;55322;48.146;11.516;2024-01-30T13:22:47;6.10;;;0.95;;
68377;SDS011;55322;48.146;11.516;2024-01-30T13:25:14;6.18;;;1.00;;
68377;SDS011;55322;48.146;11.516;2024-01-30T13:27:39;4.10;;;0.80;;
68377;SDS011;55322;48.146;11.516;2024-01-30T13:30:06;7.53;;;1.00;;
68377;SDS011;55322;48.146;11.516;2024-01-30T13:32:33;5.03;;;1.00;;
68377;SDS011;55322;48.146;11.516;2024-01-30T13:34:58;4.43;;;0.93;;
68377;SDS011;55322;48.146;11.516;2024-01-30T13:37:23;5.67;;;1.00;;
68377;SDS011;55322;48.146;11.516;2024-01-30T13:39:50;5.28;;;1.00;;
68377;SDS011;55322;48.146;11.516;2024-01-30T13:42:15;5.47;;;0.90;;
68377;SDS011;55322;48.146;11.516;2024-01-30T13:44:40;5.47;;;0.97;;
68377;SDS011;55322;48.146;11.516;2024-01-30T13:47:08;4.40;;;0.93;;
68377;SDS011;55322;48.146;11.516;2024-01-30T13:49:33;4.30;;;1.00;;
68377;SDS011;55322;48.146;11.516;2024-01-30T13:51:59;4.25;;;0.80;;
68377;SDS011;55322;48.146;11.516;2024-01-30T13:54:24;5.80;;;0.83;;
68377;SDS011;55322;48.146;11.516;2024-01-30T13:56:49;4.30;;;1.17;;
68377;SDS011;55322;48.146;11.516;2024-01-30T13:59:15;4.50;;;0.90;;
68377;SDS011;55322;48.146;11.516;2024-01-30T14:01:40;5.73;;;1.00;;
68377;SDS011;55322;48.146;11.516;2024-01-30T14:04:06;9.60;;;1.20;;
68377;SDS011;55322;48.146;11.516;2024-01-30T14:06:31;5.10;;;1.13;;
68377;SDS011;55322;48.146;11.516;2024-01-30T14:08:56;6.43;;;1.10;;
68377;SDS011;55322;48.146;11.516;2024-01-30T14:11:23;5.50;;;1.33;;
68377;SDS011;55322;48.146;11.516;2024-01-30T14:13:48;5.97;;;1.10;;
68377;SDS011;55322;48.146;11.516;2024-01-30T14:16:14;8.07;;;1.07;;
68377;SDS011;55322;48.146;11.516;2024-01-30T14:18:39;4.90;;;1.10;;
68377;SDS011;55322;48.146;11.516;2024-01-30T14:21:06;5.88;;;0.90;;
68377;SDS011;55322;48.146;11.516;2024-01-30T14:23:32;6.20;;;1.13;;
68377;SDS011;55322;48.146;11.516;2024-01-30T14:25:58;7.57;;;1.20;;
68377;SDS011;55322;48.146;11.516;2024-01-30T14:28:23;5.57;;;1.40;;
68377;SDS011;55322;48.146;11.516;2024-01-30T14:30:49;4.97;;;1.10;;